Stornoway — WDC7908 — position and weather

sailwx.info

Track history (hours):
 
Tides and Currents Weather Stations Pressure Air Temp Water Temp Dewpoint Dewpoint Depression Visibility Wind Speed Wind Dir Waves Ship Positions

Stornoway

Owner: Matthews, William R, Bainbridge Island, WA. More information available from US FCC via Universal Licensing System and Coast Guard Vessel Documentation Center.

Last reported at 2018-Jan-04 22:37 UTC. Time now 2018-Jan-18 07:45 UTC.
Position N 47°43' W 122°32'.
Warning: this ship's position is 13 days out of date.

Length 13 m.

Type: Pleasure craft. MMSI: 367078810.

Date/timePositionNaut miles runAvg speedWind from/ knotsBaromVisibWave heightAir tempDewpointWater temp
2018-Jan-04 22:37N 47°43' W 122°32'1 8.7
2018-Jan-04 22:28N 47°44' W 122°30'4 8.2
2018-Jan-04 21:59N 47°47' W 122°28'4 8.6
2018-Jan-04 21:30N 47°51' W 122°30'4 8.2
2018-Jan-04 21:00N 47°55' W 122°32'32 1.2
2018-Jan-03 16:58N 48°24' W 122°55'510.4
2018-Jan-03 16:30N 48°28' W 122°57'4 8.2
2018-Jan-03 16:00N 48°32' W 122°58'2 3.5
2018-Jan-03 15:30N 48°32' W 123°01'0 0.0
2018-Jan-03 15:00N 48°32' W 123°01'0 0.0
2018-Jan-03 14:30N 48°32' W 123°01'0 0.0
2018-Jan-03 13:57N 48°32' W 123°01'0 0.0
2018-Jan-03 13:30N 48°32' W 123°01'0 0.0
2018-Jan-03 13:00N 48°32' W 123°01'0 0.0
2018-Jan-03 12:30N 48°32' W 123°01'0 0.0
2018-Jan-03 11:45N 48°32' W 123°01'0 0.0
2018-Jan-03 11:30N 48°32' W 123°01'0 0.0
2018-Jan-03 11:00N 48°32' W 123°01'0 0.0
2018-Jan-03 10:30N 48°32' W 123°01'0 0.0
2018-Jan-03 10:00N 48°32' W 123°01'0 0.0
2018-Jan-03 09:30N 48°32' W 123°01'0 0.0
2018-Jan-03 09:00N 48°32' W 123°01'0 0.0
2018-Jan-03 08:30N 48°32' W 123°01'0 0.0
2018-Jan-03 08:00N 48°32' W 123°01'0 0.0
2018-Jan-03 07:30N 48°32' W 123°01'0 0.0
2018-Jan-03 07:00N 48°32' W 123°01'0 0.0
2018-Jan-03 06:30N 48°32' W 123°01'0 0.0
2018-Jan-03 06:00N 48°32' W 123°01'0 0.0
2018-Jan-03 05:30N 48°32' W 123°01'0 0.0
2018-Jan-03 05:00N 48°32' W 123°01'0 0.0
2018-Jan-03 04:27N 48°32' W 123°01'0 0.0
2018-Jan-03 04:00N 48°32' W 123°01'0 0.0
2018-Jan-03 03:30N 48°32' W 123°01'0 0.0
2018-Jan-03 03:00N 48°32' W 123°01'0 0.0
2018-Jan-03 02:27N 48°32' W 123°01'0 0.0
2018-Jan-03 02:00N 48°32' W 123°01'0 0.0
2018-Jan-03 01:30N 48°32' W 123°01'0 0.0
2018-Jan-03 01:00N 48°32' W 123°01'0 0.0
2018-Jan-03 00:30N 48°32' W 123°01'0 0.0
2018-Jan-02 23:54N 48°32' W 123°01'0 0.0
2018-Jan-02 23:30N 48°32' W 123°01'0 0.0
2018-Jan-02 23:00N 48°32' W 123°01'0 0.0
2018-Jan-02 22:18N 48°32' W 123°01'0 0.0
2018-Jan-02 21:54N 48°32' W 123°01'0 0.0
2018-Jan-02 21:30N 48°32' W 123°01'0 0.0
2018-Jan-02 21:00N 48°32' W 123°01'0 0.0
2018-Jan-02 20:30N 48°32' W 123°01'0 0.0
2018-Jan-02 19:57N 48°32' W 123°01'0 0.0
2018-Jan-02 19:30N 48°32' W 123°01'0 0.0
2018-Jan-02 18:42N 48°32' W 123°01'0 0.0
2018-Jan-02 18:27N 48°32' W 123°01'0 0.0
2018-Jan-02 17:57N 48°32' W 123°01'0 0.0
2018-Jan-02 17:30N 48°32' W 123°01'0 0.0
2018-Jan-02 17:00N 48°32' W 123°01'0 0.0
2018-Jan-02 16:30N 48°32' W 123°01'0 0.0
2018-Jan-02 16:00N 48°32' W 123°01'0 0.0
2018-Jan-02 15:30N 48°32' W 123°01'0 0.0
2018-Jan-02 14:54N 48°32' W 123°01'0 0.0
2018-Jan-02 14:27N 48°32' W 123°01'0 0.0
2018-Jan-02 14:00N 48°32' W 123°01'0 0.0
2018-Jan-02 13:27N 48°32' W 123°01'0 0.0
2018-Jan-02 13:00N 48°32' W 123°01'0 0.0
2018-Jan-02 12:30N 48°32' W 123°01'0 0.0
2018-Jan-02 11:57N 48°32' W 123°01'0 0.0
2018-Jan-02 11:30N 48°32' W 123°01'0 0.0
2018-Jan-02 10:54N 48°32' W 123°01'0 0.0
2018-Jan-02 10:18N 48°32' W 123°01'0 0.0
2018-Jan-02 10:00N 48°32' W 123°01'0 0.0
2018-Jan-02 09:30N 48°32' W 123°01'0 0.0
2018-Jan-02 08:27N 48°32' W 123°01'0 0.0
2018-Jan-02 07:57N 48°32' W 123°01'0 0.0
2018-Jan-02 07:30N 48°32' W 123°01'0 0.0
2018-Jan-02 06:54N 48°32' W 123°01'0 0.0
2018-Jan-02 06:30N 48°32' W 123°01'0 0.0
2018-Jan-02 06:00N 48°32' W 123°01'0 0.0
2018-Jan-02 05:27N 48°32' W 123°01'0 0.0
2018-Jan-02 04:30N 48°32' W 123°01'0 0.0
2018-Jan-02 03:57N 48°32' W 123°01'0 0.0
2018-Jan-02 03:30N 48°32' W 123°01'0 0.0
2018-Jan-02 03:00N 48°32' W 123°01'0 0.0
2018-Jan-02 02:30N 48°32' W 123°01'0 0.0
2018-Jan-02 02:00N 48°32' W 123°01'0 0.0
2018-Jan-02 01:30N 48°32' W 123°01'0 0.0
2018-Jan-02 00:54N 48°32' W 123°01'0 0.0
2018-Jan-02 00:30N 48°32' W 123°01'0 0.0
2018-Jan-02 00:00N 48°32' W 123°01'0 0.0
2018-Jan-01 23:30N 48°32' W 123°01'0 0.0
2018-Jan-01 23:00N 48°32' W 123°01'0 0.0
2018-Jan-01 22:27N 48°32' W 123°01'0 0.0
2018-Jan-01 22:00N 48°32' W 123°01'0 0.0
2018-Jan-01 21:30N 48°32' W 123°01'0 0.0
2018-Jan-01 21:00N 48°32' W 123°01'0 0.0
2018-Jan-01 20:30N 48°32' W 123°01'0 0.0
2018-Jan-01 20:00N 48°32' W 123°01'0 0.0
2018-Jan-01 19:30N 48°32' W 123°01'0 0.0
2018-Jan-01 19:00N 48°32' W 123°01'0 0.0
2018-Jan-01 18:30N 48°32' W 123°01'0 0.0
2018-Jan-01 18:00N 48°32' W 123°01'0 0.0
2018-Jan-01 17:30N 48°32' W 123°01'0 0.0
2018-Jan-01 14:44N 48°32' W 123°01'0 0.0
2018-Jan-01 14:20N 48°32' W 123°01'0 0.0
2018-Jan-01 13:50N 48°32' W 123°01'0 0.0
2018-Jan-01 13:14N 48°32' W 123°01'0 0.0
2018-Jan-01 12:59N 48°32' W 123°01'0 0.0
2018-Jan-01 11:59N 48°32' W 123°01'0 0.0
2018-Jan-01 11:17N 48°32' W 123°01'0 0.0
2018-Jan-01 10:53N 48°32' W 123°01'0 0.0
2018-Jan-01 10:29N 48°32' W 123°01'0 0.0
2018-Jan-01 09:59N 48°32' W 123°01'0 0.0
2018-Jan-01 09:29N 48°32' W 123°01'0 0.0
2018-Jan-01 08:29N 48°32' W 123°01'0 0.0
2018-Jan-01 07:59N 48°32' W 123°01'0 0.0
2018-Jan-01 07:20N 48°32' W 123°01'0 0.0
2018-Jan-01 06:59N 48°32' W 123°01'0 0.0
2018-Jan-01 05:59N 48°32' W 123°01'0 0.0
2018-Jan-01 05:26N 48°32' W 123°01'0 0.0
2018-Jan-01 04:56N 48°32' W 123°01'0 0.0
2018-Jan-01 03:59N 48°32' W 123°01'0 0.0
2018-Jan-01 03:26N 48°32' W 123°01'0 0.0
2018-Jan-01 02:50N 48°32' W 123°01'0 0.0
2018-Jan-01 02:29N 48°32' W 123°01'0 0.0
2018-Jan-01 01:53N 48°32' W 123°01'0 0.0
2018-Jan-01 01:29N 48°32' W 123°01'0 0.0
2018-Jan-01 00:24N 48°32' W 123°01'0 0.0
2017-Dec-31 20:48N 48°32' W 123°01'0 0.0
2017-Dec-31 20:30N 48°32' W 123°01'0 0.0
2017-Dec-31 20:00N 48°32' W 123°01'0 0.0
2017-Dec-31 19:30N 48°32' W 123°01'0 0.0
2017-Dec-31 18:54N 48°32' W 123°01'0 0.0
2017-Dec-31 18:30N 48°32' W 123°01'0 0.0
2017-Dec-31 18:00N 48°32' W 123°01'0 0.2
2017-Dec-31 17:30N 48°32' W 123°01'7 5.8
2017-Dec-31 16:18N 48°37' W 123°09'0 0.0
2017-Dec-31 16:00N 48°37' W 123°09'0 0.0
2017-Dec-31 15:21N 48°37' W 123°09'0 0.0
2017-Dec-31 15:00N 48°37' W 123°09'0 0.0
2017-Dec-31 14:21N 48°37' W 123°09'0 0.0
2017-Dec-31 14:00N 48°37' W 123°09'0 0.0
2017-Dec-31 13:27N 48°37' W 123°09'0 0.0
2017-Dec-31 12:57N 48°37' W 123°09'0 0.0
2017-Dec-31 12:27N 48°37' W 123°09'0 0.0
2017-Dec-31 12:00N 48°37' W 123°09'0 0.0
2017-Dec-31 11:30N 48°37' W 123°09'0 0.0
2017-Dec-31 11:00N 48°37' W 123°09'0 0.0
2017-Dec-31 10:15N 48°37' W 123°09'0 0.0
2017-Dec-31 10:00N 48°37' W 123°09'0 0.0
2017-Dec-31 09:30N 48°37' W 123°09'0 0.0
2017-Dec-31 08:48N 48°37' W 123°09'0 0.0
2017-Dec-31 08:30N 48°37' W 123°09'0 0.0
2017-Dec-31 08:00N 48°37' W 123°09'0 0.0
2017-Dec-31 07:27N 48°37' W 123°09'0 0.0
2017-Dec-31 07:00N 48°37' W 123°09'0 0.0
2017-Dec-31 06:30N 48°37' W 123°09'0 0.0
2017-Dec-31 05:18N 48°37' W 123°09'0 0.0
2017-Dec-31 04:57N 48°37' W 123°09'0 0.0
2017-Dec-31 04:30N 48°37' W 123°09'0 0.0
2017-Dec-31 03:54N 48°37' W 123°09'0 0.0
2017-Dec-31 03:30N 48°37' W 123°09'0 0.0
2017-Dec-31 03:00N 48°37' W 123°09'0 0.0
2017-Dec-31 02:30N 48°37' W 123°09'0 0.0
2017-Dec-31 01:42N 48°37' W 123°09'0 0.0
2017-Dec-31 01:30N 48°37' W 123°09'0 0.0
2017-Dec-31 01:00N 48°37' W 123°09'0 0.0
2017-Dec-31 00:27N 48°37' W 123°09'0 0.0
2017-Dec-31 00:00N 48°37' W 123°09'0 0.0
2017-Dec-30 23:30N 48°37' W 123°09'0 0.0
2017-Dec-30 18:27N 48°37' W 123°09'0 0.0
2017-Dec-30 17:48N 48°37' W 123°09'0 0.0
2017-Dec-30 17:24N 48°37' W 123°09'0 0.0
2017-Dec-30 17:00N 48°37' W 123°09'0 0.0
2017-Dec-30 15:21N 48°37' W 123°09'0 0.0
2017-Dec-30 14:12N 48°37' W 123°09'0 0.0
2017-Dec-30 13:48N 48°37' W 123°09'0 0.0
2017-Dec-30 13:27N 48°37' W 123°09'0 0.0
2017-Dec-30 13:00N 48°37' W 123°09'0 0.0
2017-Dec-30 12:27N 48°37' W 123°09'0 0.0
2017-Dec-30 11:33N 48°37' W 123°09'0 0.0
2017-Dec-30 11:24N 48°37' W 123°09'0 0.0
2017-Dec-30 11:00N 48°37' W 123°09'0 0.0
2017-Dec-30 10:27N 48°37' W 123°09'0 0.0
2017-Dec-30 09:48N 48°37' W 123°09'0 0.0
2017-Dec-30 09:18N 48°37' W 123°09'0 0.0
2017-Dec-30 08:57N 48°37' W 123°09'0 0.0
2017-Dec-30 08:30N 48°37' W 123°09'0 0.0
2017-Dec-30 08:00N 48°37' W 123°09'0 0.0
2017-Dec-30 07:30N 48°37' W 123°09'0 0.0
2017-Dec-30 07:00N 48°37' W 123°09'0 0.0
2017-Dec-30 06:30N 48°37' W 123°09'0 0.0
2017-Dec-30 06:00N 48°37' W 123°09'0 0.0
2017-Dec-30 05:27N 48°37' W 123°09'0 0.0
2017-Dec-30 05:00N 48°37' W 123°09'0 0.0
2017-Dec-30 04:27N 48°37' W 123°09'0 0.0
2017-Dec-30 04:00N 48°37' W 123°09'0 0.0
2017-Dec-30 03:24N 48°37' W 123°09'0 0.0
2017-Dec-30 02:45N 48°37' W 123°09'0 0.0
2017-Dec-30 02:30N 48°37' W 123°09'0 0.0
2017-Dec-30 02:01N 48°37' W 123°09'0 0.0
2017-Dec-30 01:24N 48°37' W 123°09'0 0.0
2017-Dec-30 01:00N 48°37' W 123°09'0 0.0
2017-Dec-30 00:27N 48°37' W 123°09'0 0.0
2017-Dec-30 00:01N 48°37' W 123°09'0 0.0
2017-Dec-29 23:28N 48°37' W 123°09'0 0.0
2017-Dec-29 22:46N 48°37' W 123°09'0 0.0
2017-Dec-29 22:28N 48°37' W 123°09'4 1.5
2017-Dec-29 19:45N 48°37' W 123°03'4 8.7
2017-Dec-29 19:15N 48°36' W 122°57'2 9.1
2017-Dec-29 19:00N 48°35' W 122°54'4 9.0
2017-Dec-29 18:30N 48°32' W 122°49'5 8.8
2017-Dec-29 17:55N 48°31' W 122°41'3 7.8
2017-Dec-29 17:30N 48°31' W 122°36'4 8.0
2017-Dec-29 16:58N 48°28' W 122°32'30 1.3
2017-Dec-28 17:58N 47°59' W 122°21'4 9.6
2017-Dec-28 17:30N 47°55' W 122°22'5 9.3
2017-Dec-28 17:00N 47°50' W 122°24'5 9.2
2017-Dec-28 16:30N 47°46' W 122°27'4 8.7
2017-Dec-28 16:00N 47°43' W 122°31'1 0.4
2017-Dec-28 12:24N 47°42' W 122°32'0 0.0
2017-Dec-28 09:12N 47°42' W 122°32'0 0.0
2017-Dec-28 08:48N 47°42' W 122°32'0 0.0
2017-Dec-27 19:12N 47°42' W 122°32'1 1.9
2017-Dec-27 18:47N 47°42' W 122°32'2 8.2
2017-Dec-27 18:30N 47°44' W 122°29'4 7.9
2017-Dec-27 18:00N 47°48' W 122°28'4 7.1
2017-Dec-27 17:28N 47°52' W 122°30'2 0.1
2017-Dec-26 21:23N 47°53' W 122°30'4 9.6
2017-Dec-26 21:00N 47°50' W 122°29'5 9.0
2017-Dec-26 20:30N 47°45' W 122°28'  
Track history (hours):
 
Tides and Currents Weather Stations Pressure Air Temp Water Temp Dewpoint Dewpoint Depression Visibility Wind Speed Wind Dir Waves Ship Positions

Stornoway

Owner: Matthews, William R, Bainbridge Island, WA. More information available from US FCC via Universal Licensing System and Coast Guard Vessel Documentation Center.

Last reported at 2018-Jan-04 22:37 UTC. Time now 2018-Jan-18 07:45 UTC.
Position N 47°43' W 122°32'.
Warning: this ship's position is 13 days out of date.

Length 13 m.

Type: Pleasure craft. MMSI: 367078810.

Date/timePositionNaut miles runAvg speedWind from/ knotsBaromVisibWave heightAir tempDewpointWater temp
2018-Jan-04 22:37N 47°43' W 122°32'1 8.7
2018-Jan-04 22:28N 47°44' W 122°30'4 8.2
2018-Jan-04 21:59N 47°47' W 122°28'4 8.6
2018-Jan-04 21:30N 47°51' W 122°30'4 8.2
2018-Jan-04 21:00N 47°55' W 122°32'32 1.2
2018-Jan-03 16:58N 48°24' W 122°55'510.4
2018-Jan-03 16:30N 48°28' W 122°57'4 8.2
2018-Jan-03 16:00N 48°32' W 122°58'2 3.5
2018-Jan-03 15:30N 48°32' W 123°01'0 0.0
2018-Jan-03 15:00N 48°32' W 123°01'0 0.0
2018-Jan-03 14:30N 48°32' W 123°01'0 0.0
2018-Jan-03 13:57N 48°32' W 123°01'0 0.0
2018-Jan-03 13:30N 48°32' W 123°01'0 0.0
2018-Jan-03 13:00N 48°32' W 123°01'0 0.0
2018-Jan-03 12:30N 48°32' W 123°01'0 0.0
2018-Jan-03 11:45N 48°32' W 123°01'0 0.0
2018-Jan-03 11:30N 48°32' W 123°01'0 0.0
2018-Jan-03 11:00N 48°32' W 123°01'0 0.0
2018-Jan-03 10:30N 48°32' W 123°01'0 0.0
2018-Jan-03 10:00N 48°32' W 123°01'0 0.0
2018-Jan-03 09:30N 48°32' W 123°01'0 0.0
2018-Jan-03 09:00N 48°32' W 123°01'0 0.0
2018-Jan-03 08:30N 48°32' W 123°01'0 0.0
2018-Jan-03 08:00N 48°32' W 123°01'0 0.0
2018-Jan-03 07:30N 48°32' W 123°01'0 0.0
2018-Jan-03 07:00N 48°32' W 123°01'0 0.0
2018-Jan-03 06:30N 48°32' W 123°01'0 0.0
2018-Jan-03 06:00N 48°32' W 123°01'0 0.0
2018-Jan-03 05:30N 48°32' W 123°01'0 0.0
2018-Jan-03 05:00N 48°32' W 123°01'0 0.0
2018-Jan-03 04:27N 48°32' W 123°01'0 0.0
2018-Jan-03 04:00N 48°32' W 123°01'0 0.0
2018-Jan-03 03:30N 48°32' W 123°01'0 0.0
2018-Jan-03 03:00N 48°32' W 123°01'0 0.0
2018-Jan-03 02:27N 48°32' W 123°01'0 0.0
2018-Jan-03 02:00N 48°32' W 123°01'0 0.0
2018-Jan-03 01:30N 48°32' W 123°01'0 0.0
2018-Jan-03 01:00N 48°32' W 123°01'0 0.0
2018-Jan-03 00:30N 48°32' W 123°01'0 0.0
2018-Jan-02 23:54N 48°32' W 123°01'0 0.0
2018-Jan-02 23:30N 48°32' W 123°01'0 0.0
2018-Jan-02 23:00N 48°32' W 123°01'0 0.0
2018-Jan-02 22:18N 48°32' W 123°01'0 0.0
2018-Jan-02 21:54N 48°32' W 123°01'0 0.0
2018-Jan-02 21:30N 48°32' W 123°01'0 0.0
2018-Jan-02 21:00N 48°32' W 123°01'0 0.0
2018-Jan-02 20:30N 48°32' W 123°01'0 0.0
2018-Jan-02 19:57N 48°32' W 123°01'0 0.0
2018-Jan-02 19:30N 48°32' W 123°01'0 0.0
2018-Jan-02 18:42N 48°32' W 123°01'0 0.0
2018-Jan-02 18:27N 48°32' W 123°01'0 0.0
2018-Jan-02 17:57N 48°32' W 123°01'0 0.0
2018-Jan-02 17:30N 48°32' W 123°01'0 0.0
2018-Jan-02 17:00N 48°32' W 123°01'0 0.0
2018-Jan-02 16:30N 48°32' W 123°01'0 0.0
2018-Jan-02 16:00N 48°32' W 123°01'0 0.0
2018-Jan-02 15:30N 48°32' W 123°01'0 0.0
2018-Jan-02 14:54N 48°32' W 123°01'0 0.0
2018-Jan-02 14:27N 48°32' W 123°01'0 0.0
2018-Jan-02 14:00N 48°32' W 123°01'0 0.0
2018-Jan-02 13:27N 48°32' W 123°01'0 0.0
2018-Jan-02 13:00N 48°32' W 123°01'0 0.0
2018-Jan-02 12:30N 48°32' W 123°01'0 0.0
2018-Jan-02 11:57N 48°32' W 123°01'0 0.0
2018-Jan-02 11:30N 48°32' W 123°01'0 0.0
2018-Jan-02 10:54N 48°32' W 123°01'0 0.0
2018-Jan-02 10:18N 48°32' W 123°01'0 0.0
2018-Jan-02 10:00N 48°32' W 123°01'0 0.0
2018-Jan-02 09:30N 48°32' W 123°01'0 0.0
2018-Jan-02 08:27N 48°32' W 123°01'0 0.0
2018-Jan-02 07:57N 48°32' W 123°01'0 0.0
2018-Jan-02 07:30N 48°32' W 123°01'0 0.0
2018-Jan-02 06:54N 48°32' W 123°01'0 0.0
2018-Jan-02 06:30N 48°32' W 123°01'0 0.0
2018-Jan-02 06:00N 48°32' W 123°01'0 0.0
2018-Jan-02 05:27N 48°32' W 123°01'0 0.0
2018-Jan-02 04:30N 48°32' W 123°01'0 0.0
2018-Jan-02 03:57N 48°32' W 123°01'0 0.0
2018-Jan-02 03:30N 48°32' W 123°01'0 0.0
2018-Jan-02 03:00N 48°32' W 123°01'0 0.0
2018-Jan-02 02:30N 48°32' W 123°01'0 0.0
2018-Jan-02 02:00N 48°32' W 123°01'0 0.0
2018-Jan-02 01:30N 48°32' W 123°01'0 0.0
2018-Jan-02 00:54N 48°32' W 123°01'0 0.0
2018-Jan-02 00:30N 48°32' W 123°01'0 0.0
2018-Jan-02 00:00N 48°32' W 123°01'0 0.0
2018-Jan-01 23:30N 48°32' W 123°01'0 0.0
2018-Jan-01 23:00N 48°32' W 123°01'0 0.0
2018-Jan-01 22:27N 48°32' W 123°01'0 0.0
2018-Jan-01 22:00N 48°32' W 123°01'0 0.0
2018-Jan-01 21:30N 48°32' W 123°01'0 0.0
2018-Jan-01 21:00N 48°32' W 123°01'0 0.0
2018-Jan-01 20:30N 48°32' W 123°01'0 0.0
2018-Jan-01 20:00N 48°32' W 123°01'0 0.0
2018-Jan-01 19:30N 48°32' W 123°01'0 0.0
2018-Jan-01 19:00N 48°32' W 123°01'0 0.0
2018-Jan-01 18:30N 48°32' W 123°01'0 0.0
2018-Jan-01 18:00N 48°32' W 123°01'0 0.0
2018-Jan-01 17:30N 48°32' W 123°01'0 0.0
2018-Jan-01 14:44N 48°32' W 123°01'0 0.0
2018-Jan-01 14:20N 48°32' W 123°01'0 0.0
2018-Jan-01 13:50N 48°32' W 123°01'0 0.0
2018-Jan-01 13:14N 48°32' W 123°01'0 0.0
2018-Jan-01 12:59N 48°32' W 123°01'0 0.0
2018-Jan-01 11:59N 48°32' W 123°01'0 0.0
2018-Jan-01 11:17N 48°32' W 123°01'0 0.0
2018-Jan-01 10:53N 48°32' W 123°01'0 0.0
2018-Jan-01 10:29N 48°32' W 123°01'0 0.0
2018-Jan-01 09:59N 48°32' W 123°01'0 0.0
2018-Jan-01 09:29N 48°32' W 123°01'0 0.0
2018-Jan-01 08:29N 48°32' W 123°01'0 0.0
2018-Jan-01 07:59N 48°32' W 123°01'0 0.0
2018-Jan-01 07:20N 48°32' W 123°01'0 0.0
2018-Jan-01 06:59N 48°32' W 123°01'0 0.0
2018-Jan-01 05:59N 48°32' W 123°01'0 0.0
2018-Jan-01 05:26N 48°32' W 123°01'0 0.0
2018-Jan-01 04:56N 48°32' W 123°01'0 0.0
2018-Jan-01 03:59N 48°32' W 123°01'0 0.0
2018-Jan-01 03:26N 48°32' W 123°01'0 0.0
2018-Jan-01 02:50N 48°32' W 123°01'0 0.0
2018-Jan-01 02:29N 48°32' W 123°01'0 0.0
2018-Jan-01 01:53N 48°32' W 123°01'0 0.0
2018-Jan-01 01:29N 48°32' W 123°01'0 0.0
2018-Jan-01 00:24N 48°32' W 123°01'0 0.0
2017-Dec-31 20:48N 48°32' W 123°01'0 0.0
2017-Dec-31 20:30N 48°32' W 123°01'0 0.0
2017-Dec-31 20:00N 48°32' W 123°01'0 0.0
2017-Dec-31 19:30N 48°32' W 123°01'0 0.0
2017-Dec-31 18:54N 48°32' W 123°01'0 0.0
2017-Dec-31 18:30N 48°32' W 123°01'0 0.0
2017-Dec-31 18:00N 48°32' W 123°01'0 0.2
2017-Dec-31 17:30N 48°32' W 123°01'7 5.8
2017-Dec-31 16:18N 48°37' W 123°09'0 0.0
2017-Dec-31 16:00N 48°37' W 123°09'0 0.0
2017-Dec-31 15:21N 48°37' W 123°09'0 0.0
2017-Dec-31 15:00N 48°37' W 123°09'0 0.0
2017-Dec-31 14:21N 48°37' W 123°09'0 0.0
2017-Dec-31 14:00N 48°37' W 123°09'0 0.0
2017-Dec-31 13:27N 48°37' W 123°09'0 0.0
2017-Dec-31 12:57N 48°37' W 123°09'0 0.0
2017-Dec-31 12:27N 48°37' W 123°09'0 0.0
2017-Dec-31 12:00N 48°37' W 123°09'0 0.0
2017-Dec-31 11:30N 48°37' W 123°09'0 0.0
2017-Dec-31 11:00N 48°37' W 123°09'0 0.0
2017-Dec-31 10:15N 48°37' W 123°09'0 0.0
2017-Dec-31 10:00N 48°37' W 123°09'0 0.0
2017-Dec-31 09:30N 48°37' W 123°09'0 0.0
2017-Dec-31 08:48N 48°37' W 123°09'0 0.0
2017-Dec-31 08:30N 48°37' W 123°09'0 0.0
2017-Dec-31 08:00N 48°37' W 123°09'0 0.0
2017-Dec-31 07:27N 48°37' W 123°09'0 0.0
2017-Dec-31 07:00N 48°37' W 123°09'0 0.0
2017-Dec-31 06:30N 48°37' W 123°09'0 0.0
2017-Dec-31 05:18N 48°37' W 123°09'0 0.0
2017-Dec-31 04:57N 48°37' W 123°09'0 0.0
2017-Dec-31 04:30N 48°37' W 123°09'0 0.0
2017-Dec-31 03:54N 48°37' W 123°09'0 0.0
2017-Dec-31 03:30N 48°37' W 123°09'0 0.0
2017-Dec-31 03:00N 48°37' W 123°09'0 0.0
2017-Dec-31 02:30N 48°37' W 123°09'0 0.0
2017-Dec-31 01:42N 48°37' W 123°09'0 0.0
2017-Dec-31 01:30N 48°37' W 123°09'0 0.0
2017-Dec-31 01:00N 48°37' W 123°09'0 0.0
2017-Dec-31 00:27N 48°37' W 123°09'0 0.0
2017-Dec-31 00:00N 48°37' W 123°09'0 0.0
2017-Dec-30 23:30N 48°37' W 123°09'0 0.0
2017-Dec-30 18:27N 48°37' W 123°09'0 0.0
2017-Dec-30 17:48N 48°37' W 123°09'0 0.0
2017-Dec-30 17:24N 48°37' W 123°09'0 0.0
2017-Dec-30 17:00N 48°37' W 123°09'0 0.0
2017-Dec-30 15:21N 48°37' W 123°09'0 0.0
2017-Dec-30 14:12N 48°37' W 123°09'0 0.0
2017-Dec-30 13:48N 48°37' W 123°09'0 0.0
2017-Dec-30 13:27N 48°37' W 123°09'0 0.0
2017-Dec-30 13:00N 48°37' W 123°09'0 0.0
2017-Dec-30 12:27N 48°37' W 123°09'0 0.0
2017-Dec-30 11:33N 48°37' W 123°09'0 0.0
2017-Dec-30 11:24N 48°37' W 123°09'0 0.0
2017-Dec-30 11:00N 48°37' W 123°09'0 0.0
2017-Dec-30 10:27N 48°37' W 123°09'0 0.0
2017-Dec-30 09:48N 48°37' W 123°09'0 0.0
2017-Dec-30 09:18N 48°37' W 123°09'0 0.0
2017-Dec-30 08:57N 48°37' W 123°09'0 0.0
2017-Dec-30 08:30N 48°37' W 123°09'0 0.0
2017-Dec-30 08:00N 48°37' W 123°09'0 0.0
2017-Dec-30 07:30N 48°37' W 123°09'0 0.0
2017-Dec-30 07:00N 48°37' W 123°09'0 0.0
2017-Dec-30 06:30N 48°37' W 123°09'0 0.0
2017-Dec-30 06:00N 48°37' W 123°09'0 0.0
2017-Dec-30 05:27N 48°37' W 123°09'0 0.0
2017-Dec-30 05:00N 48°37' W 123°09'0 0.0
2017-Dec-30 04:27N 48°37' W 123°09'0 0.0
2017-Dec-30 04:00N 48°37' W 123°09'0 0.0
2017-Dec-30 03:24N 48°37' W 123°09'0 0.0
2017-Dec-30 02:45N 48°37' W 123°09'0 0.0
2017-Dec-30 02:30N 48°37' W 123°09'0 0.0
2017-Dec-30 02:01N 48°37' W 123°09'0 0.0
2017-Dec-30 01:24N 48°37' W 123°09'0 0.0
2017-Dec-30 01:00N 48°37' W 123°09'0 0.0
2017-Dec-30 00:27N 48°37' W 123°09'0 0.0
2017-Dec-30 00:01N 48°37' W 123°09'0 0.0
2017-Dec-29 23:28N 48°37' W 123°09'0 0.0
2017-Dec-29 22:46N 48°37' W 123°09'0 0.0
2017-Dec-29 22:28N 48°37' W 123°09'4 1.5
2017-Dec-29 19:45N 48°37' W 123°03'4 8.7
2017-Dec-29 19:15N 48°36' W 122°57'2 9.1
2017-Dec-29 19:00N 48°35' W 122°54'4 9.0
2017-Dec-29 18:30N 48°32' W 122°49'5 8.8
2017-Dec-29 17:55N 48°31' W 122°41'3 7.8
2017-Dec-29 17:30N 48°31' W 122°36'4 8.0
2017-Dec-29 16:58N 48°28' W 122°32'30 1.3
2017-Dec-28 17:58N 47°59' W 122°21'4 9.6
2017-Dec-28 17:30N 47°55' W 122°22'5 9.3
2017-Dec-28 17:00N 47°50' W 122°24'5 9.2
2017-Dec-28 16:30N 47°46' W 122°27'4 8.7
2017-Dec-28 16:00N 47°43' W 122°31'1 0.4
2017-Dec-28 12:24N 47°42' W 122°32'0 0.0
2017-Dec-28 09:12N 47°42' W 122°32'0 0.0
2017-Dec-28 08:48N 47°42' W 122°32'0 0.0
2017-Dec-27 19:12N 47°42' W 122°32'1 1.9
2017-Dec-27 18:47N 47°42' W 122°32'2 8.2
2017-Dec-27 18:30N 47°44' W 122°29'4 7.9
2017-Dec-27 18:00N 47°48' W 122°28'4 7.1
2017-Dec-27 17:28N 47°52' W 122°30'2 0.1
2017-Dec-26 21:23N 47°53' W 122°30'4 9.6
2017-Dec-26 21:00N 47°50' W 122°29'5 9.0
2017-Dec-26 20:30N 47°45' W 122°28'  

Dump ship's entire track history